< < Back
Terminal Aerodrome Forecast


Current Version              Previous Versions:   1  2  3  4  5  6  7  8  9  

Terminal Aerodrome Forecast

327
FTUS42 KTAE 290500
TAFDHN
TAF
KDHN 290528Z 2906/3006 32011KT P6SM SKC
     FM300000 32005KT P6SM SKC=

Latest METAR

802
SAUS70 KWBC 300500 RRK
MTRDHN
METAR KDHN 300453Z AUTO 32005KT 10SM CLR 22/18 A3005 RMK AO2 SLP170
T02220183 $


USA.gov is the U.S. government's official web portal to all federal, state and local government web resources and services.